sensor_id;sensor_type;location;lat;lon;timestamp;temperature;humidity
28532;DHT22;15738;44.860;10.066;2022-10-26T00:02:30;16.80;99.90
28532;DHT22;15738;44.860;10.066;2022-10-26T00:05:17;16.90;99.90
28532;DHT22;15738;44.860;10.066;2022-10-26T00:08:03;17.00;99.90
28532;DHT22;15738;44.860;10.066;2022-10-26T00:10:48;17.00;99.90
28532;DHT22;15738;44.860;10.066;2022-10-26T00:13:34;17.00;99.90
28532;DHT22;15738;44.860;10.066;2022-10-26T00:16:23;17.00;99.90
28532;DHT22;15738;44.860;10.066;2022-10-26T00:19:08;17.00;99.90
28532;DHT22;15738;44.860;10.066;2022-10-26T00:21:54;17.10;99.90
28532;DHT22;15738;44.860;10.066;2022-10-26T00:24:40;17.00;99.90
28532;DHT22;15738;44.860;10.066;2022-10-26T00:27:25;17.10;99.90
28532;DHT22;15738;44.860;10.066;2022-10-26T00:30:11;17.00;99.90
28532;DHT22;15738;44.860;10.066;2022-10-26T00:32:57;17.00;99.90
28532;DHT22;15738;44.860;10.066;2022-10-26T00:35:46;17.00;99.90
28532;DHT22;15738;44.860;10.066;2022-10-26T00:38:31;17.00;99.90
28532;DHT22;15738;44.860;10.066;2022-10-26T00:41:19;17.00;99.90
28532;DHT22;15738;44.860;10.066;2022-10-26T00:47:44;17.00;99.90
28532;DHT22;15738;44.860;10.066;2022-10-26T00:50:35;17.00;99.90
28532;DHT22;15738;44.860;10.066;2022-10-26T00:53:21;17.00;99.90
28532;DHT22;15738;44.860;10.066;2022-10-26T00:56:07;17.00;99.90
28532;DHT22;15738;44.860;10.066;2022-10-26T00:58:54;16.90;99.90
28532;DHT22;15738;44.860;10.066;2022-10-26T01:01:43;16.90;99.90
28532;DHT22;15738;44.860;10.066;2022-10-26T01:04:29;16.90;99.90
28532;DHT22;15738;44.860;10.066;2022-10-26T01:07:15;16.80;99.90
28532;DHT22;15738;44.860;10.066;2022-10-26T01:10:01;16.70;99.90
28532;DHT22;15738;44.860;10.066;2022-10-26T01:12:48;16.70;99.90
28532;DHT22;15738;44.860;10.066;2022-10-26T01:15:45;16.70;99.90
28532;DHT22;15738;44.860;10.066;2022-10-26T01:27:46;16.60;99.90
28532;DHT22;15738;44.860;10.066;2022-10-26T01:30:43;16.60;99.90
28532;DHT22;15738;44.860;10.066;2022-10-26T01:33:34;16.60;99.90
28532;DHT22;15738;44.860;10.066;2022-10-26T01:36:42;16.50;99.90
28532;DHT22;15738;44.860;10.066;2022-10-26T01:39:29;16.60;99.90
28532;DHT22;15738;44.860;10.066;2022-10-26T01:42:22;16.50;99.90
28532;DHT22;15738;44.860;10.066;2022-10-26T01:45:09;16.60;99.90
28532;DHT22;15738;44.860;10.066;2022-10-26T01:47:57;16.60;99.90
28532;DHT22;15738;44.860;10.066;2022-10-26T01:50:46;16.50;99.90
28532;DHT22;15738;44.860;10.066;2022-10-26T01:53:32;16.50;99.90
28532;DHT22;15738;44.860;10.066;2022-10-26T01:56:24;16.50;99.90
28532;DHT22;15738;44.860;10.066;2022-10-26T02:03:11;16.50;99.90
28532;DHT22;15738;44.860;10.066;2022-10-26T02:06:09;16.50;99.90
28532;DHT22;15738;44.860;10.066;2022-10-26T02:09:12;16.50;99.90
28532;DHT22;15738;44.860;10.066;2022-10-26T02:12:19;16.50;99.90
28532;DHT22;15738;44.860;10.066;2022-10-26T02:18:26;16.40;99.90
28532;DHT22;15738;44.860;10.066;2022-10-26T02:21:18;16.40;99.90
28532;DHT22;15738;44.860;10.066;2022-10-26T02:24:07;16.40;99.90
28532;DHT22;15738;44.860;10.066;2022-10-26T02:26:55;16.30;99.90
28532;DHT22;15738;44.860;10.066;2022-10-26T02:29:43;16.40;99.90
28532;DHT22;15738;44.860;10.066;2022-10-26T02:32:32;16.30;99.90
28532;DHT22;15738;44.860;10.066;2022-10-26T02:35:22;16.30;99.90
28532;DHT22;15738;44.860;10.066;2022-10-26T02:38:11;16.30;99.90
28532;DHT22;15738;44.860;10.066;2022-10-26T02:40:58;16.40;99.90
28532;DHT22;15738;44.860;10.066;2022-10-26T02:43:52;16.30;99.90
28532;DHT22;15738;44.860;10.066;2022-10-26T02:46:39;16.30;99.90
28532;DHT22;15738;44.860;10.066;2022-10-26T02:49:25;16.30;99.90
28532;DHT22;15738;44.860;10.066;2022-10-26T02:52:23;16.40;99.90
28532;DHT22;15738;44.860;10.066;2022-10-26T02:55:24;16.40;99.90
28532;DHT22;15738;44.860;10.066;2022-10-26T02:58:15;16.40;99.90
28532;DHT22;15738;44.860;10.066;2022-10-26T03:01:03;16.40;99.90
28532;DHT22;15738;44.860;10.066;2022-10-26T03:03:48;16.40;99.90
28532;DHT22;15738;44.860;10.066;2022-10-26T03:06:34;16.40;99.90
28532;DHT22;15738;44.860;10.066;2022-10-26T03:09:20;16.40;99.90
28532;DHT22;15738;44.860;10.066;2022-10-26T03:12:10;16.40;99.90
28532;DHT22;15738;44.860;10.066;2022-10-26T03:14:55;16.40;99.90
28532;DHT22;15738;44.860;10.066;2022-10-26T03:17:41;16.40;99.90
28532;DHT22;15738;44.860;10.066;2022-10-26T03:20:27;16.50;99.90
28532;DHT22;15738;44.860;10.066;2022-10-26T03:23:12;16.40;99.90
28532;DHT22;15738;44.860;10.066;2022-10-26T03:25:58;16.40;99.90
28532;DHT22;15738;44.860;10.066;2022-10-26T03:28:44;16.40;99.90
28532;DHT22;15738;44.860;10.066;2022-10-26T03:31:30;16.30;99.90
28532;DHT22;15738;44.860;10.066;2022-10-26T03:34:16;16.30;99.90
28532;DHT22;15738;44.860;10.066;2022-10-26T03:37:01;16.30;99.90
28532;DHT22;15738;44.860;10.066;2022-10-26T03:39:47;16.20;99.90
28532;DHT22;15738;44.860;10.066;2022-10-26T03:42:34;16.20;99.90
28532;DHT22;15738;44.860;10.066;2022-10-26T03:45:20;16.20;99.90
28532;DHT22;15738;44.860;10.066;2022-10-26T03:48:07;16.20;99.90
28532;DHT22;15738;44.860;10.066;2022-10-26T03:50:56;16.20;99.90
28532;DHT22;15738;44.860;10.066;2022-10-26T03:53:42;16.10;99.90
28532;DHT22;15738;44.860;10.066;2022-10-26T03:56:28;16.10;99.90
28532;DHT22;15738;44.860;10.066;2022-10-26T03:59:13;16.00;99.90
28532;DHT22;15738;44.860;10.066;2022-10-26T04:01:59;16.00;99.90
28532;DHT22;15738;44.860;10.066;2022-10-26T04:04:45;16.00;99.90
28532;DHT22;15738;44.860;10.066;2022-10-26T04:07:30;15.90;99.90
28532;DHT22;15738;44.860;10.066;2022-10-26T04:10:16;15.80;99.90
28532;DHT22;15738;44.860;10.066;2022-10-26T04:13:02;15.90;99.90
28532;DHT22;15738;44.860;10.066;2022-10-26T04:15:47;15.90;99.90
28532;DHT22;15738;44.860;10.066;2022-10-26T04:18:33;15.90;99.90
28532;DHT22;15738;44.860;10.066;2022-10-26T04:21:19;15.90;99.90
28532;DHT22;15738;44.860;10.066;2022-10-26T04:24:04;15.80;99.90
28532;DHT22;15738;44.860;10.066;2022-10-26T04:26:50;15.80;99.90
28532;DHT22;15738;44.860;10.066;2022-10-26T04:29:36;15.80;99.90
28532;DHT22;15738;44.860;10.066;2022-10-26T04:32:22;15.70;99.90
28532;DHT22;15738;44.860;10.066;2022-10-26T04:35:07;15.70;99.90
28532;DHT22;15738;44.860;10.066;2022-10-26T04:38:04;15.70;99.90
28532;DHT22;15738;44.860;10.066;2022-10-26T04:40:50;15.70;99.90
28532;DHT22;15738;44.860;10.066;2022-10-26T04:43:36;15.70;99.90
28532;DHT22;15738;44.860;10.066;2022-10-26T04:46:22;15.70;99.90
28532;DHT22;15738;44.860;10.066;2022-10-26T04:49:08;15.70;99.90
28532;DHT22;15738;44.860;10.066;2022-10-26T04:51:53;15.70;99.90
28532;DHT22;15738;44.860;10.066;2022-10-26T04:54:39;15.70;99.90
28532;DHT22;15738;44.860;10.066;2022-10-26T04:57:24;15.70;99.90
28532;DHT22;15738;44.860;10.066;2022-10-26T05:00:10;15.70;99.90
28532;DHT22;15738;44.860;10.066;2022-10-26T05:03:00;15.70;99.90
28532;DHT22;15738;44.860;10.066;2022-10-26T05:05:47;15.70;99.90
28532;DHT22;15738;44.860;10.066;2022-10-26T05:08:33;15.70;99.90
28532;DHT22;15738;44.860;10.066;2022-10-26T05:11:18;15.70;99.90
28532;DHT22;15738;44.860;10.066;2022-10-26T05:14:04;15.70;99.90
28532;DHT22;15738;44.860;10.066;2022-10-26T05:16:50;15.60;99.90
28532;DHT22;15738;44.860;10.066;2022-10-26T05:19:36;15.60;99.90
28532;DHT22;15738;44.860;10.066;2022-10-26T05:22:21;15.60;99.90
28532;DHT22;15738;44.860;10.066;2022-10-26T05:25:07;15.60;99.90
28532;DHT22;15738;44.860;10.066;2022-10-26T05:27:57;15.60;99.90
28532;DHT22;15738;44.860;10.066;2022-10-26T05:30:44;15.60;99.90
28532;DHT22;15738;44.860;10.066;2022-10-26T05:33:30;15.60;99.90
28532;DHT22;15738;44.860;10.066;2022-10-26T05:36:19;15.60;99.90
28532;DHT22;15738;44.860;10.066;2022-10-26T05:39:04;15.60;99.90
28532;DHT22;15738;44.860;10.066;2022-10-26T05:41:50;15.60;99.90
28532;DHT22;15738;44.860;10.066;2022-10-26T05:50:02;15.60;99.90
28532;DHT22;15738;44.860;10.066;2022-10-26T05:52:48;15.60;99.90
28532;DHT22;15738;44.860;10.066;2022-10-26T05:55:35;15.60;99.90
28532;DHT22;15738;44.860;10.066;2022-10-26T05:58:21;15.60;99.90
28532;DHT22;15738;44.860;10.066;2022-10-26T06:01:31;15.60;99.90
28532;DHT22;15738;44.860;10.066;2022-10-26T06:04:36;15.60;99.90
28532;DHT22;15738;44.860;10.066;2022-10-26T06:07:23;15.60;99.90
28532;DHT22;15738;44.860;10.066;2022-10-26T06:10:10;15.60;99.90
28532;DHT22;15738;44.860;10.066;2022-10-26T06:12:57;15.60;99.90
28532;DHT22;15738;44.860;10.066;2022-10-26T06:16:13;15.70;99.90
28532;DHT22;15738;44.860;10.066;2022-10-26T06:19:11;15.70;99.90
28532;DHT22;15738;44.860;10.066;2022-10-26T06:22:08;15.70;99.90
28532;DHT22;15738;44.860;10.066;2022-10-26T06:25:23;15.80;99.90
28532;DHT22;15738;44.860;10.066;2022-10-26T06:28:26;15.90;99.90
28532;DHT22;15738;44.860;10.066;2022-10-26T06:31:14;16.00;99.90
28532;DHT22;15738;44.860;10.066;2022-10-26T06:34:00;16.00;99.90
28532;DHT22;15738;44.860;10.066;2022-10-26T06:36:46;16.10;99.90
28532;DHT22;15738;44.860;10.066;2022-10-26T06:39:41;16.20;99.90
28532;DHT22;15738;44.860;10.066;2022-10-26T06:42:30;16.30;99.90
28532;DHT22;15738;44.860;10.066;2022-10-26T06:45:16;16.30;99.90
28532;DHT22;15738;44.860;10.066;2022-10-26T06:52:12;16.90;99.90
28532;DHT22;15738;44.860;10.066;2022-10-26T06:54:54;17.30;99.90
28532;DHT22;15738;44.860;10.066;2022-10-26T06:57:41;17.50;99.90
28532;DHT22;15738;44.860;10.066;2022-10-26T07:00:27;17.50;99.90
28532;DHT22;15738;44.860;10.066;2022-10-26T07:03:14;17.50;99.90
28532;DHT22;15738;44.860;10.066;2022-10-26T07:06:00;17.60;99.90
28532;DHT22;15738;44.860;10.066;2022-10-26T07:08:46;17.60;99.90
28532;DHT22;15738;44.860;10.066;2022-10-26T07:11:31;17.70;99.90
28532;DHT22;15738;44.860;10.066;2022-10-26T07:14:17;17.80;99.90
28532;DHT22;15738;44.860;10.066;2022-10-26T07:17:04;17.90;99.90
28532;DHT22;15738;44.860;10.066;2022-10-26T07:19:50;17.90;99.90
28532;DHT22;15738;44.860;10.066;2022-10-26T07:22:35;17.90;99.90
28532;DHT22;15738;44.860;10.066;2022-10-26T07:25:23;17.90;99.90
28532;DHT22;15738;44.860;10.066;2022-10-26T07:28:10;18.00;99.90
28532;DHT22;15738;44.860;10.066;2022-10-26T07:30:57;18.10;99.90
28532;DHT22;15738;44.860;10.066;2022-10-26T07:33:43;18.30;99.90
28532;DHT22;15738;44.860;10.066;2022-10-26T07:36:29;18.40;99.90
28532;DHT22;15738;44.860;10.066;2022-10-26T07:39:15;18.60;99.90
28532;DHT22;15738;44.860;10.066;2022-10-26T07:42:01;18.70;99.90
28532;DHT22;15738;44.860;10.066;2022-10-26T07:44:47;18.80;99.90
28532;DHT22;15738;44.860;10.066;2022-10-26T07:47:33;19.00;99.90
28532;DHT22;15738;44.860;10.066;2022-10-26T07:50:19;18.90;99.90
28532;DHT22;15738;44.860;10.066;2022-10-26T07:53:04;19.00;99.90
28532;DHT22;15738;44.860;10.066;2022-10-26T07:55:54;19.20;99.90
28532;DHT22;15738;44.860;10.066;2022-10-26T07:58:40;19.30;99.90
28532;DHT22;15738;44.860;10.066;2022-10-26T08:01:26;19.30;99.90
28532;DHT22;15738;44.860;10.066;2022-10-26T08:04:11;19.40;99.90
28532;DHT22;15738;44.860;10.066;2022-10-26T08:06:57;19.40;99.90
28532;DHT22;15738;44.860;10.066;2022-10-26T08:09:43;19.40;99.90
28532;DHT22;15738;44.860;10.066;2022-10-26T08:12:28;19.50;99.90
28532;DHT22;15738;44.860;10.066;2022-10-26T08:15:14;19.50;99.90
28532;DHT22;15738;44.860;10.066;2022-10-26T08:18:00;19.60;99.90
28532;DHT22;15738;44.860;10.066;2022-10-26T08:20:46;19.60;99.90
28532;DHT22;15738;44.860;10.066;2022-10-26T08:23:32;19.70;99.90
28532;DHT22;15738;44.860;10.066;2022-10-26T08:26:18;19.70;99.90
28532;DHT22;15738;44.860;10.066;2022-10-26T08:29:13;19.80;99.90
28532;DHT22;15738;44.860;10.066;2022-10-26T08:31:59;19.90;99.90
28532;DHT22;15738;44.860;10.066;2022-10-26T08:34:45;19.60;99.90
28532;DHT22;15738;44.860;10.066;2022-10-26T08:37:30;19.90;99.90
28532;DHT22;15738;44.860;10.066;2022-10-26T08:40:30;19.90;99.90
28532;DHT22;15738;44.860;10.066;2022-10-26T08:43:30;19.90;99.90
28532;DHT22;15738;44.860;10.066;2022-10-26T08:46:36;19.90;99.90
28532;DHT22;15738;44.860;10.066;2022-10-26T08:49:32;20.00;99.90
28532;DHT22;15738;44.860;10.066;2022-10-26T08:52:27;20.00;99.90
28532;DHT22;15738;44.860;10.066;2022-10-26T08:55:17;20.10;99.90
28532;DHT22;15738;44.860;10.066;2022-10-26T08:58:05;20.10;99.90
28532;DHT22;15738;44.860;10.066;2022-10-26T09:00:53;20.10;99.90
28532;DHT22;15738;44.860;10.066;2022-10-26T09:03:41;20.10;99.90
28532;DHT22;15738;44.860;10.066;2022-10-26T09:06:58;20.10;99.90
28532;DHT22;15738;44.860;10.066;2022-10-26T09:24:58;20.40;99.90
28532;DHT22;15738;44.860;10.066;2022-10-26T09:28:35;20.50;99.90
28532;DHT22;15738;44.860;10.066;2022-10-26T09:31:22;20.60;99.90
28532;DHT22;15738;44.860;10.066;2022-10-26T09:34:29;20.50;99.90
28532;DHT22;15738;44.860;10.066;2022-10-26T09:37:20;20.60;99.90
28532;DHT22;15738;44.860;10.066;2022-10-26T09:40:11;20.70;99.90
28532;DHT22;15738;44.860;10.066;2022-10-26T09:43:11;20.80;99.90
28532;DHT22;15738;44.860;10.066;2022-10-26T09:45:58;20.90;99.90
28532;DHT22;15738;44.860;10.066;2022-10-26T09:49:04;21.10;99.90
28532;DHT22;15738;44.860;10.066;2022-10-26T09:51:51;21.20;99.90
28532;DHT22;15738;44.860;10.066;2022-10-26T09:54:36;21.30;99.90
28532;DHT22;15738;44.860;10.066;2022-10-26T09:57:22;21.40;99.90
28532;DHT22;15738;44.860;10.066;2022-10-26T10:00:17;21.50;99.90
28532;DHT22;15738;44.860;10.066;2022-10-26T10:03:19;21.60;99.90
28532;DHT22;15738;44.860;10.066;2022-10-26T10:06:14;21.70;99.90
28532;DHT22;15738;44.860;10.066;2022-10-26T10:09:16;21.80;99.90
28532;DHT22;15738;44.860;10.066;2022-10-26T10:12:02;21.80;99.90
28532;DHT22;15738;44.860;10.066;2022-10-26T10:14:56;21.90;99.90
28532;DHT22;15738;44.860;10.066;2022-10-26T10:17:48;21.90;99.90
28532;DHT22;15738;44.860;10.066;2022-10-26T10:20:37;22.00;99.90
28532;DHT22;15738;44.860;10.066;2022-10-26T10:23:34;22.10;99.90
28532;DHT22;15738;44.860;10.066;2022-10-26T10:26:21;22.10;99.90
28532;DHT22;15738;44.860;10.066;2022-10-26T10:29:13;22.20;99.90
28532;DHT22;15738;44.860;10.066;2022-10-26T10:32:01;22.30;99.90
28532;DHT22;15738;44.860;10.066;2022-10-26T10:34:52;22.30;99.90
28532;DHT22;15738;44.860;10.066;2022-10-26T10:37:40;22.40;99.90
28532;DHT22;15738;44.860;10.066;2022-10-26T10:40:29;22.40;99.90
28532;DHT22;15738;44.860;10.066;2022-10-26T10:43:16;22.30;99.90
28532;DHT22;15738;44.860;10.066;2022-10-26T10:46:01;22.30;99.90
28532;DHT22;15738;44.860;10.066;2022-10-26T10:48:54;22.20;99.90
28532;DHT22;15738;44.860;10.066;2022-10-26T10:51:45;22.20;99.90
28532;DHT22;15738;44.860;10.066;2022-10-26T10:54:33;22.20;99.90
28532;DHT22;15738;44.860;10.066;2022-10-26T11:00:50;22.30;99.90
28532;DHT22;15738;44.860;10.066;2022-10-26T11:03:45;22.20;99.90
28532;DHT22;15738;44.860;10.066;2022-10-26T11:06:35;22.20;99.90
28532;DHT22;15738;44.860;10.066;2022-10-26T11:09:26;22.30;99.90
28532;DHT22;15738;44.860;10.066;2022-10-26T11:12:17;22.30;99.90
28532;DHT22;15738;44.860;10.066;2022-10-26T11:15:21;22.30;99.90
28532;DHT22;15738;44.860;10.066;2022-10-26T11:21:29;22.40;99.90
28532;DHT22;15738;44.860;10.066;2022-10-26T11:24:38;22.40;99.90
28532;DHT22;15738;44.860;10.066;2022-10-26T11:27:31;22.50;99.90
28532;DHT22;15738;44.860;10.066;2022-10-26T11:30:20;22.50;99.90
28532;DHT22;15738;44.860;10.066;2022-10-26T11:33:18;22.50;99.90
28532;DHT22;15738;44.860;10.066;2022-10-26T11:36:13;22.50;99.90
28532;DHT22;15738;44.860;10.066;2022-10-26T11:39:20;22.60;99.90
28532;DHT22;15738;44.860;10.066;2022-10-26T11:50:56;22.70;99.90
28532;DHT22;15738;44.860;10.066;2022-10-26T11:53:44;22.70;99.90
28532;DHT22;15738;44.860;10.066;2022-10-26T11:56:36;22.70;99.90
28532;DHT22;15738;44.860;10.066;2022-10-26T11:59:28;22.70;99.90
28532;DHT22;15738;44.860;10.066;2022-10-26T12:02:23;22.70;99.90
28532;DHT22;15738;44.860;10.066;2022-10-26T12:08:08;22.70;99.90
28532;DHT22;15738;44.860;10.066;2022-10-26T12:17:49;22.70;99.90
28532;DHT22;15738;44.860;10.066;2022-10-26T12:20:55;22.80;99.90
28532;DHT22;15738;44.860;10.066;2022-10-26T12:29:46;22.70;99.90
28532;DHT22;15738;44.860;10.066;2022-10-26T12:35:57;22.70;99.90
28532;DHT22;15738;44.860;10.066;2022-10-26T12:41:29;22.60;99.90
28532;DHT22;15738;44.860;10.066;2022-10-26T12:44:35;22.60;99.90
28532;DHT22;15738;44.860;10.066;2022-10-26T12:53:09;22.50;99.90
28532;DHT22;15738;44.860;10.066;2022-10-26T12:56:03;22.50;99.90
28532;DHT22;15738;44.860;10.066;2022-10-26T13:08:53;22.50;99.90
28532;DHT22;15738;44.860;10.066;2022-10-26T13:11:48;22.50;99.90
28532;DHT22;15738;44.860;10.066;2022-10-26T13:14:49;22.50;99.90
28532;DHT22;15738;44.860;10.066;2022-10-26T13:17:36;22.50;99.90
28532;DHT22;15738;44.860;10.066;2022-10-26T13:20:22;22.50;99.90
28532;DHT22;15738;44.860;10.066;2022-10-26T13:23:15;22.50;99.90
28532;DHT22;15738;44.860;10.066;2022-10-26T13:26:25;22.50;99.90
28532;DHT22;15738;44.860;10.066;2022-10-26T13:29:16;22.50;99.90
28532;DHT22;15738;44.860;10.066;2022-10-26T13:32:02;22.50;99.90
28532;DHT22;15738;44.860;10.066;2022-10-26T13:34:48;22.50;99.90
28532;DHT22;15738;44.860;10.066;2022-10-26T13:37:35;22.50;99.90
28532;DHT22;15738;44.860;10.066;2022-10-26T13:40:26;22.60;99.90
28532;DHT22;15738;44.860;10.066;2022-10-26T13:43:21;22.60;99.90
28532;DHT22;15738;44.860;10.066;2022-10-26T13:46:26;22.50;99.90
28532;DHT22;15738;44.860;10.066;2022-10-26T13:49:22;22.50;99.90
28532;DHT22;15738;44.860;10.066;2022-10-26T13:52:16;22.60;99.90
28532;DHT22;15738;44.860;10.066;2022-10-26T13:55:16;22.60;99.90
28532;DHT22;15738;44.860;10.066;2022-10-26T13:58:19;22.60;99.90
28532;DHT22;15738;44.860;10.066;2022-10-26T14:01:19;22.60;99.90
28532;DHT22;15738;44.860;10.066;2022-10-26T14:04:15;22.60;99.90
28532;DHT22;15738;44.860;10.066;2022-10-26T14:07:18;22.50;99.90
28532;DHT22;15738;44.860;10.066;2022-10-26T14:13:12;22.50;99.90
28532;DHT22;15738;44.860;10.066;2022-10-26T14:15:58;22.50;99.90
28532;DHT22;15738;44.860;10.066;2022-10-26T14:18:44;22.40;99.90
28532;DHT22;15738;44.860;10.066;2022-10-26T14:21:30;22.40;99.90
28532;DHT22;15738;44.860;10.066;2022-10-26T14:24:25;22.40;99.90
28532;DHT22;15738;44.860;10.066;2022-10-26T14:27:37;22.40;99.90
28532;DHT22;15738;44.860;10.066;2022-10-26T14:30:26;22.30;99.90
28532;DHT22;15738;44.860;10.066;2022-10-26T14:33:24;22.30;99.90
28532;DHT22;15738;44.860;10.066;2022-10-26T14:36:11;22.30;99.90
28532;DHT22;15738;44.860;10.066;2022-10-26T14:39:00;22.30;99.90
28532;DHT22;15738;44.860;10.066;2022-10-26T14:41:48;22.20;99.90
28532;DHT22;15738;44.860;10.066;2022-10-26T14:44:35;22.20;99.90
28532;DHT22;15738;44.860;10.066;2022-10-26T14:47:32;22.10;99.90
28532;DHT22;15738;44.860;10.066;2022-10-26T14:50:21;22.10;99.90
28532;DHT22;15738;44.860;10.066;2022-10-26T14:53:14;22.10;99.90
28532;DHT22;15738;44.860;10.066;2022-10-26T14:56:01;22.00;99.90
28532;DHT22;15738;44.860;10.066;2022-10-26T14:58:48;22.00;99.90
28532;DHT22;15738;44.860;10.066;2022-10-26T15:01:55;22.00;99.90
28532;DHT22;15738;44.860;10.066;2022-10-26T15:04:59;21.90;99.90
28532;DHT22;15738;44.860;10.066;2022-10-26T15:07:45;21.90;99.90
28532;DHT22;15738;44.860;10.066;2022-10-26T15:13:30;21.90;99.90
28532;DHT22;15738;44.860;10.066;2022-10-26T15:19:10;21.80;99.90
28532;DHT22;15738;44.860;10.066;2022-10-26T15:21:56;21.80;99.90
28532;DHT22;15738;44.860;10.066;2022-10-26T15:24:42;21.80;99.90
28532;DHT22;15738;44.860;10.066;2022-10-26T15:27:27;21.80;99.90
28532;DHT22;15738;44.860;10.066;2022-10-26T15:30:27;21.70;99.90
28532;DHT22;15738;44.860;10.066;2022-10-26T15:33:18;21.70;99.90
28532;DHT22;15738;44.860;10.066;2022-10-26T15:36:20;21.60;99.90
28532;DHT22;15738;44.860;10.066;2022-10-26T15:39:07;21.60;99.90
28532;DHT22;15738;44.860;10.066;2022-10-26T15:41:54;21.50;99.90
28532;DHT22;15738;44.860;10.066;2022-10-26T15:44:40;21.50;99.90
28532;DHT22;15738;44.860;10.066;2022-10-26T15:47:31;21.40;99.90
28532;DHT22;15738;44.860;10.066;2022-10-26T15:50:21;21.40;99.90
28532;DHT22;15738;44.860;10.066;2022-10-26T15:53:15;21.30;99.90
28532;DHT22;15738;44.860;10.066;2022-10-26T15:56:04;21.30;99.90
28532;DHT22;15738;44.860;10.066;2022-10-26T15:58:56;21.30;99.90
28532;DHT22;15738;44.860;10.066;2022-10-26T16:01:42;21.20;99.90
28532;DHT22;15738;44.860;10.066;2022-10-26T16:04:28;21.10;99.90
28532;DHT22;15738;44.860;10.066;2022-10-26T16:07:15;21.10;99.90
28532;DHT22;15738;44.860;10.066;2022-10-26T16:10:00;21.00;99.90
28532;DHT22;15738;44.860;10.066;2022-10-26T16:12:46;20.90;99.90
28532;DHT22;15738;44.860;10.066;2022-10-26T16:15:32;20.90;99.90
28532;DHT22;15738;44.860;10.066;2022-10-26T16:18:17;20.80;99.90
28532;DHT22;15738;44.860;10.066;2022-10-26T16:21:03;20.80;99.90
28532;DHT22;15738;44.860;10.066;2022-10-26T16:23:53;20.70;99.90
28532;DHT22;15738;44.860;10.066;2022-10-26T16:26:39;20.70;99.90
28532;DHT22;15738;44.860;10.066;2022-10-26T16:29:25;20.60;99.90
28532;DHT22;15738;44.860;10.066;2022-10-26T16:32:12;20.60;99.90
28532;DHT22;15738;44.860;10.066;2022-10-26T16:34:58;20.50;99.90
28532;DHT22;15738;44.860;10.066;2022-10-26T16:37:44;20.50;99.90
28532;DHT22;15738;44.860;10.066;2022-10-26T16:40:30;20.40;99.90
28532;DHT22;15738;44.860;10.066;2022-10-26T16:43:16;20.40;99.90
28532;DHT22;15738;44.860;10.066;2022-10-26T16:46:07;20.30;99.90
28532;DHT22;15738;44.860;10.066;2022-10-26T16:48:53;20.30;99.90
28532;DHT22;15738;44.860;10.066;2022-10-26T16:51:39;20.20;99.90
28532;DHT22;15738;44.860;10.066;2022-10-26T16:54:25;20.20;99.90
28532;DHT22;15738;44.860;10.066;2022-10-26T16:57:15;20.10;99.90
28532;DHT22;15738;44.860;10.066;2022-10-26T17:00:01;20.10;99.90
28532;DHT22;15738;44.860;10.066;2022-10-26T17:02:47;20.10;99.90
28532;DHT22;15738;44.860;10.066;2022-10-26T17:05:37;20.00;99.90
28532;DHT22;15738;44.860;10.066;2022-10-26T17:08:23;19.90;99.90
28532;DHT22;15738;44.860;10.066;2022-10-26T17:11:09;19.90;99.90
28532;DHT22;15738;44.860;10.066;2022-10-26T18:57:55;18.50;99.90
28532;DHT22;15738;44.860;10.066;2022-10-26T19:00:41;18.40;99.90
28532;DHT22;15738;44.860;10.066;2022-10-26T19:03:30;18.40;99.90
28532;DHT22;15738;44.860;10.066;2022-10-26T19:06:18;18.40;99.90
28532;DHT22;15738;44.860;10.066;2022-10-26T19:09:07;18.40;99.90
28532;DHT22;15738;44.860;10.066;2022-10-26T19:11:54;18.30;99.90
28532;DHT22;15738;44.860;10.066;2022-10-26T19:14:45;18.30;99.90
28532;DHT22;15738;44.860;10.066;2022-10-26T19:17:35;18.30;99.90
28532;DHT22;15738;44.860;10.066;2022-10-26T19:20:22;18.20;99.90
28532;DHT22;15738;44.860;10.066;2022-10-26T19:23:08;18.20;99.90
28532;DHT22;15738;44.860;10.066;2022-10-26T19:25:54;18.20;99.90
28532;DHT22;15738;44.860;10.066;2022-10-26T19:28:45;18.20;99.90
28532;DHT22;15738;44.860;10.066;2022-10-26T19:31:32;18.20;99.90
28532;DHT22;15738;44.860;10.066;2022-10-26T19:34:19;18.20;99.90
28532;DHT22;15738;44.860;10.066;2022-10-26T19:37:05;18.10;99.90
28532;DHT22;15738;44.860;10.066;2022-10-26T19:39:50;18.10;99.90
28532;DHT22;15738;44.860;10.066;2022-10-26T19:42:36;18.10;99.90
28532;DHT22;15738;44.860;10.066;2022-10-26T19:45:22;18.10;99.90
28532;DHT22;15738;44.860;10.066;2022-10-26T19:48:08;18.10;99.90
28532;DHT22;15738;44.860;10.066;2022-10-26T19:50:54;18.10;99.90
28532;DHT22;15738;44.860;10.066;2022-10-26T19:53:40;18.10;99.90
28532;DHT22;15738;44.860;10.066;2022-10-26T19:56:26;18.00;99.90
28532;DHT22;15738;44.860;10.066;2022-10-26T19:59:11;18.00;99.90
28532;DHT22;15738;44.860;10.066;2022-10-26T20:01:58;18.00;99.90
28532;DHT22;15738;44.860;10.066;2022-10-26T20:04:44;18.00;99.90
28532;DHT22;15738;44.860;10.066;2022-10-26T20:07:30;17.90;99.90
28532;DHT22;15738;44.860;10.066;2022-10-26T20:10:16;17.90;99.90
28532;DHT22;15738;44.860;10.066;2022-10-26T20:13:02;17.90;99.90
28532;DHT22;15738;44.860;10.066;2022-10-26T20:15:49;17.90;99.90
28532;DHT22;15738;44.860;10.066;2022-10-26T20:18:35;17.90;99.90
28532;DHT22;15738;44.860;10.066;2022-10-26T20:21:20;17.90;99.90
28532;DHT22;15738;44.860;10.066;2022-10-26T20:24:08;17.80;99.90
28532;DHT22;15738;44.860;10.066;2022-10-26T20:27:30;17.80;99.90
28532;DHT22;15738;44.860;10.066;2022-10-26T20:30:25;17.80;99.90
28532;DHT22;15738;44.860;10.066;2022-10-26T20:33:11;17.80;99.90
28532;DHT22;15738;44.860;10.066;2022-10-26T20:36:34;17.80;99.90
28532;DHT22;15738;44.860;10.066;2022-10-26T20:39:21;17.80;99.90
28532;DHT22;15738;44.860;10.066;2022-10-26T20:42:19;17.80;99.90
28532;DHT22;15738;44.860;10.066;2022-10-26T20:49:04;17.80;99.90
28532;DHT22;15738;44.860;10.066;2022-10-26T20:51:54;17.80;99.90
28532;DHT22;15738;44.860;10.066;2022-10-26T20:55:10;17.80;99.90
28532;DHT22;15738;44.860;10.066;2022-10-26T20:58:21;17.80;99.90
28532;DHT22;15738;44.860;10.066;2022-10-26T21:01:27;17.80;99.90
28532;DHT22;15738;44.860;10.066;2022-10-26T21:04:13;17.80;99.90
28532;DHT22;15738;44.860;10.066;2022-10-26T21:06:59;17.80;99.90
28532;DHT22;15738;44.860;10.066;2022-10-26T21:09:45;17.80;99.90
28532;DHT22;15738;44.860;10.066;2022-10-26T21:12:31;17.80;99.90